Selibe-Phikwe, Botswana

12:27 AM CAT on January 31, 2015 (GMT +0200)
Francistown | Change Station
CLOSE
Current Station
Airport
Location: Francistown,
Elevation: 3281 ft
Nearby Weather Stations

Elev 3281 ft 21.16 °S, 27.48 °E | Updated 1 hour ago

Thunderstorms and Rain
Thunderstorm Rain
70 °F
Feels Like 70 °F
N
7
Wind Variable Wind from NNE

Today
High -- | Low -- °F
--% Chance of Precip.
Yesterday
High -- | Low -- °F
Precip. -- in
5:48 AM 6:55 PM
Waxing Gibbous, 85% visible
Pressure 30.04 in
Visibility 6.2 miles
Clouds Few 2500 ft
Few 3000 ft
Mostly Cloudy 7000 ft
Dew Point 68 °F
Humidity 94%
Rainfall 0.00 in
Snow Depth Not available.
UV 0 out of 12
Pollen Not available.
Air Quality Not available.
Flu Activity Not available.
METAR FBFT 302100Z 02006KT 9999 TSRA FEW025 FEW030CB BKN070 21/20 Q1017

More Conditions Fewer Conditions

Pressure 30.04 in
Visibility 6.2 miles
Clouds Few 2500 ft
Few 3000 ft
Mostly Cloudy 7000 ft
Dew Point 68 °F
Humidity 94%
Rainfall 0.00 in
Snow Depth Not available.
UV 0 out of 12
Pollen Not available.
Air Quality Not available.
Flu Activity Not available.
METAR FBFT 302100Z 02006KT 9999 TSRA FEW025 FEW030CB BKN070 21/20 Q1017

More Conditions Fewer Conditions

10-Day Weather Forecast

Almanac

Astronomy

Jan. 31, 2015 Rise Set
Actual Time
Civil Twilight
Nautical Twilight
Astronomical Twilight
Moon
Length of Visible Light
Length of Day
Tomorrow will be .
, % of the Moon is Illuminated

Today's Extremes

Country Highs Country Lows

Community

WunderPhotos

Upload Photos

1,791,904 photos uploaded!

WunderBlogs® & News

Nearby

Air Quality

  Air Quality AQ Index Pollutant
Not available.

Snow Depth

Station Depth Elevation

Earthquake Activity

City Distance Mag. Time & Date
Minimum magnitude displayed is 2.5.

Coastal Water Temperatures

Place Temperature

Nearby Weather Stations